sensor_id;sensor_type;location;lat;lon;timestamp;pressure;altitude;pressure_sealevel;temperature;humidity
72525;BME280;60547;48.502;8.996;2023-04-19T00:00:05;98366.31;;;9.19;80.86
72525;BME280;60547;48.502;8.996;2023-04-19T00:02:34;98380.47;;;9.28;80.69
72525;BME280;60547;48.502;8.996;2023-04-19T00:05:00;98393.53;;;9.31;80.43
72525;BME280;60547;48.502;8.996;2023-04-19T00:07:26;98395.53;;;9.31;80.44
72525;BME280;60547;48.502;8.996;2023-04-19T00:09:51;98385.25;;;9.28;80.94
72525;BME280;60547;48.502;8.996;2023-04-19T00:12:17;98369.00;;;9.26;80.49
72525;BME280;60547;48.502;8.996;2023-04-19T00:14:43;98392.31;;;9.32;80.66
72525;BME280;60547;48.502;8.996;2023-04-19T00:17:08;98389.63;;;9.25;80.95
72525;BME280;60547;48.502;8.996;2023-04-19T00:19:36;98386.78;;;9.32;81.12
72525;BME280;60547;48.502;8.996;2023-04-19T00:22:01;98361.59;;;9.16;80.65
72525;BME280;60547;48.502;8.996;2023-04-19T00:24:27;98375.72;;;9.29;81.06
72525;BME280;60547;48.502;8.996;2023-04-19T00:26:53;98377.31;;;9.26;80.50
72525;BME280;60547;48.502;8.996;2023-04-19T00:29:18;98370.94;;;9.29;80.69
72525;BME280;60547;48.502;8.996;2023-04-19T00:31:44;98371.63;;;9.37;81.26
72525;BME280;60547;48.502;8.996;2023-04-19T00:34:09;98368.06;;;9.36;80.64
72525;BME280;60547;48.502;8.996;2023-04-19T00:36:35;98383.44;;;9.45;80.05
72525;BME280;60547;48.502;8.996;2023-04-19T00:39:00;98353.91;;;9.27;80.44
72525;BME280;60547;48.502;8.996;2023-04-19T00:41:26;98361.34;;;9.34;80.50
72525;BME280;60547;48.502;8.996;2023-04-19T00:43:51;98351.19;;;9.24;81.12
72525;BME280;60547;48.502;8.996;2023-04-19T00:46:16;98365.38;;;9.29;80.95
72525;BME280;60547;48.502;8.996;2023-04-19T00:48:42;98330.69;;;9.14;81.46
72525;BME280;60547;48.502;8.996;2023-04-19T00:51:08;98351.22;;;9.20;81.13
72525;BME280;60547;48.502;8.996;2023-04-19T00:53:35;98369.28;;;9.35;80.67
72525;BME280;60547;48.502;8.996;2023-04-19T00:56:02;98347.34;;;9.14;81.22
72525;BME280;60547;48.502;8.996;2023-04-19T00:58:30;98362.25;;;9.27;81.09
72525;BME280;60547;48.502;8.996;2023-04-19T01:00:56;98343.91;;;9.33;80.81
72525;BME280;60547;48.502;8.996;2023-04-19T01:03:22;98341.31;;;9.19;81.06
72525;BME280;60547;48.502;8.996;2023-04-19T01:05:48;98361.59;;;9.16;81.26
72525;BME280;60547;48.502;8.996;2023-04-19T01:08:14;98348.31;;;9.00;81.55
72525;BME280;60547;48.502;8.996;2023-04-19T01:10:40;98347.78;;;9.09;81.29
72525;BME280;60547;48.502;8.996;2023-04-19T01:13:06;98351.22;;;9.20;81.57
72525;BME280;60547;48.502;8.996;2023-04-19T01:15:31;98331.88;;;9.13;81.13
72525;BME280;60547;48.502;8.996;2023-04-19T01:17:57;98336.66;;;9.13;82.24
72525;BME280;60547;48.502;8.996;2023-04-19T01:20:22;98358.25;;;9.28;81.21
72525;BME280;60547;48.502;8.996;2023-04-19T01:22:48;98351.81;;;9.35;80.91
72525;BME280;60547;48.502;8.996;2023-04-19T01:25:13;98354.88;;;9.44;80.76
72525;BME280;60547;48.502;8.996;2023-04-19T01:27:39;98354.38;;;9.22;80.93
72525;BME280;60547;48.502;8.996;2023-04-19T01:30:05;98342.94;;;9.17;80.90
72525;BME280;60547;48.502;8.996;2023-04-19T01:32:31;98344.84;;;9.23;80.54
72525;BME280;60547;48.502;8.996;2023-04-19T01:34:56;98337.81;;;9.15;81.45
72525;BME280;60547;48.502;8.996;2023-04-19T01:37:22;98337.91;;;9.08;82.05
72525;BME280;60547;48.502;8.996;2023-04-19T01:39:47;98336.31;;;9.07;81.34
72525;BME280;60547;48.502;8.996;2023-04-19T01:42:13;98344.19;;;9.12;80.95
72525;BME280;60547;48.502;8.996;2023-04-19T01:44:39;98311.84;;;8.98;81.00
72525;BME280;60547;48.502;8.996;2023-04-19T01:47:04;98333.19;;;9.05;81.82
72525;BME280;60547;48.502;8.996;2023-04-19T01:49:29;98335.13;;;9.08;81.11
72525;BME280;60547;48.502;8.996;2023-04-19T01:51:55;98311.44;;;9.00;81.28
72525;BME280;60547;48.502;8.996;2023-04-19T01:54:20;98322.91;;;9.02;81.90
72525;BME280;60547;48.502;8.996;2023-04-19T01:56:46;98335.59;;;9.03;82.18
72525;BME280;60547;48.502;8.996;2023-04-19T01:59:11;98333.91;;;9.09;81.90
72525;BME280;60547;48.502;8.996;2023-04-19T02:01:37;98321.28;;;9.04;81.30
72525;BME280;60547;48.502;8.996;2023-04-19T02:04:02;98329.19;;;9.06;81.36
72525;BME280;60547;48.502;8.996;2023-04-19T02:06:28;98296.06;;;8.92;81.19
72525;BME280;60547;48.502;8.996;2023-04-19T02:08:53;98299.34;;;8.83;81.80
72525;BME280;60547;48.502;8.996;2023-04-19T02:11:19;98307.63;;;9.17;81.65
72525;BME280;60547;48.502;8.996;2023-04-19T02:13:45;98313.00;;;9.01;81.19
72525;BME280;60547;48.502;8.996;2023-04-19T02:16:11;98309.94;;;8.92;81.57
72525;BME280;60547;48.502;8.996;2023-04-19T02:18:36;98312.72;;;8.92;81.48
72525;BME280;60547;48.502;8.996;2023-04-19T02:21:07;98310.59;;;9.03;81.21
72525;BME280;60547;48.502;8.996;2023-04-19T02:23:33;98297.78;;;8.82;81.83
72525;BME280;60547;48.502;8.996;2023-04-19T02:26:00;98288.56;;;8.89;81.58
72525;BME280;60547;48.502;8.996;2023-04-19T02:28:29;98312.25;;;8.97;82.61
72525;BME280;60547;48.502;8.996;2023-04-19T02:30:54;98295.97;;;8.99;81.80
72525;BME280;60547;48.502;8.996;2023-04-19T02:33:21;98295.38;;;9.15;80.56
72525;BME280;60547;48.502;8.996;2023-04-19T02:35:46;98276.19;;;8.97;81.40
72525;BME280;60547;48.502;8.996;2023-04-19T02:38:12;98279.31;;;8.99;81.85
72525;BME280;60547;48.502;8.996;2023-04-19T02:40:37;98291.22;;;8.99;81.73
72525;BME280;60547;48.502;8.996;2023-04-19T02:43:03;98272.28;;;8.91;81.78
72525;BME280;60547;48.502;8.996;2023-04-19T02:45:28;98267.47;;;8.95;81.70
72525;BME280;60547;48.502;8.996;2023-04-19T02:47:54;98281.72;;;8.97;81.49
72525;BME280;60547;48.502;8.996;2023-04-19T02:50:20;98290.81;;;9.01;81.57
72525;BME280;60547;48.502;8.996;2023-04-19T02:52:45;98271.56;;;8.87;82.01
72525;BME280;60547;48.502;8.996;2023-04-19T02:55:11;98274.78;;;8.82;82.13
72525;BME280;60547;48.502;8.996;2023-04-19T02:57:36;98284.22;;;8.88;82.31
72525;BME280;60547;48.502;8.996;2023-04-19T03:00:02;98265.16;;;8.59;82.22
72525;BME280;60547;48.502;8.996;2023-04-19T03:02:30;98286.81;;;8.71;82.27
72525;BME280;60547;48.502;8.996;2023-04-19T03:04:55;98278.19;;;8.62;82.91
72525;BME280;60547;48.502;8.996;2023-04-19T03:07:22;98284.94;;;8.61;82.66
72525;BME280;60547;48.502;8.996;2023-04-19T03:09:47;98270.78;;;8.52;82.98
72525;BME280;60547;48.502;8.996;2023-04-19T03:12:13;98280.22;;;8.58;83.14
72525;BME280;60547;48.502;8.996;2023-04-19T03:14:38;98280.69;;;8.53;82.98
72525;BME280;60547;48.502;8.996;2023-04-19T03:17:04;98283.31;;;8.64;83.06
72525;BME280;60547;48.502;8.996;2023-04-19T03:19:29;98268.00;;;8.52;82.91
72525;BME280;60547;48.502;8.996;2023-04-19T03:21:55;98284.81;;;8.72;83.18
72525;BME280;60547;48.502;8.996;2023-04-19T03:24:29;98267.81;;;8.70;83.16
72525;BME280;60547;48.502;8.996;2023-04-19T03:26:56;98274.03;;;8.78;82.99
72525;BME280;60547;48.502;8.996;2023-04-19T03:29:21;98280.06;;;8.72;82.81
72525;BME280;60547;48.502;8.996;2023-04-19T03:31:47;98280.44;;;8.74;83.09
72525;BME280;60547;48.502;8.996;2023-04-19T03:34:13;98273.41;;;8.66;83.44
72525;BME280;60547;48.502;8.996;2023-04-19T03:36:39;98264.09;;;8.50;83.35
72525;BME280;60547;48.502;8.996;2023-04-19T03:39:05;98274.91;;;8.71;83.83
72525;BME280;60547;48.502;8.996;2023-04-19T03:41:30;98265.44;;;8.68;83.56
72525;BME280;60547;48.502;8.996;2023-04-19T03:43:56;98274.13;;;8.70;83.78
72525;BME280;60547;48.502;8.996;2023-04-19T03:46:24;98267.84;;;8.66;83.82
72525;BME280;60547;48.502;8.996;2023-04-19T03:48:50;98272.47;;;8.77;83.65
72525;BME280;60547;48.502;8.996;2023-04-19T03:51:16;98257.50;;;8.70;83.29
72525;BME280;60547;48.502;8.996;2023-04-19T03:53:42;98264.63;;;8.71;83.65
72525;BME280;60547;48.502;8.996;2023-04-19T03:56:08;98259.09;;;8.68;83.50
72525;BME280;60547;48.502;8.996;2023-04-19T03:58:33;98258.69;;;8.69;83.83
72525;BME280;60547;48.502;8.996;2023-04-19T04:00:59;98262.16;;;8.77;83.36
72525;BME280;60547;48.502;8.996;2023-04-19T04:03:25;98266.09;;;8.80;83.68
72525;BME280;60547;48.502;8.996;2023-04-19T04:05:51;98256.66;;;8.73;83.42
72525;BME280;60547;48.502;8.996;2023-04-19T04:08:17;98257.41;;;8.78;83.34
72525;BME280;60547;48.502;8.996;2023-04-19T04:10:42;98262.94;;;8.78;83.10
72525;BME280;60547;48.502;8.996;2023-04-19T04:13:08;98262.38;;;8.59;83.62
72525;BME280;60547;48.502;8.996;2023-04-19T04:15:33;98261.09;;;8.67;83.39
72525;BME280;60547;48.502;8.996;2023-04-19T04:17:59;98254.56;;;8.51;84.10
72525;BME280;60547;48.502;8.996;2023-04-19T04:20:24;98246.53;;;8.60;83.33
72525;BME280;60547;48.502;8.996;2023-04-19T04:22:50;98241.19;;;8.42;83.61
72525;BME280;60547;48.502;8.996;2023-04-19T04:25:17;98262.38;;;8.59;84.12
72525;BME280;60547;48.502;8.996;2023-04-19T04:27:42;98257.69;;;8.53;84.30
72525;BME280;60547;48.502;8.996;2023-04-19T04:30:12;98250.81;;;8.64;83.92
72525;BME280;60547;48.502;8.996;2023-04-19T04:32:37;98272.94;;;8.71;84.24
72525;BME280;60547;48.502;8.996;2023-04-19T04:35:06;98253.19;;;8.66;84.05
72525;BME280;60547;48.502;8.996;2023-04-19T04:37:33;98269.34;;;8.74;84.16
72525;BME280;60547;48.502;8.996;2023-04-19T04:39:59;98268.31;;;8.61;83.81
72525;BME280;60547;48.502;8.996;2023-04-19T04:42:25;98271.94;;;8.55;84.24
72525;BME280;60547;48.502;8.996;2023-04-19T04:44:52;98273.09;;;8.57;83.86
72525;BME280;60547;48.502;8.996;2023-04-19T04:47:17;98257.00;;;8.45;84.28
72525;BME280;60547;48.502;8.996;2023-04-19T04:49:43;98262.34;;;8.63;84.45
72525;BME280;60547;48.502;8.996;2023-04-19T04:52:08;98269.50;;;8.60;84.49
72525;BME280;60547;48.502;8.996;2023-04-19T04:54:34;98256.78;;;8.63;84.17
72525;BME280;60547;48.502;8.996;2023-04-19T04:56:59;98264.47;;;8.82;83.33
72525;BME280;60547;48.502;8.996;2023-04-19T04:59:26;98260.91;;;8.82;83.61
72525;BME280;60547;48.502;8.996;2023-04-19T05:01:51;98267.84;;;8.66;83.93
72525;BME280;60547;48.502;8.996;2023-04-19T05:04:18;98267.47;;;8.64;84.33
72525;BME280;60547;48.502;8.996;2023-04-19T05:06:43;98250.63;;;8.48;84.71
72525;BME280;60547;48.502;8.996;2023-04-19T05:09:09;98280.31;;;8.51;84.84
72525;BME280;60547;48.502;8.996;2023-04-19T05:11:35;98272.06;;;8.44;85.11
72525;BME280;60547;48.502;8.996;2023-04-19T05:14:01;98275.47;;;8.59;84.32
72525;BME280;60547;48.502;8.996;2023-04-19T05:16:27;98284.44;;;8.70;84.11
72525;BME280;60547;48.502;8.996;2023-04-19T05:18:52;98282.47;;;8.70;83.96
72525;BME280;60547;48.502;8.996;2023-04-19T05:21:18;98286.72;;;8.79;83.90
72525;BME280;60547;48.502;8.996;2023-04-19T05:23:43;98286.69;;;8.82;82.95
72525;BME280;60547;48.502;8.996;2023-04-19T05:26:09;98291.53;;;8.74;83.65
72525;BME280;60547;48.502;8.996;2023-04-19T05:28:40;98285.50;;;8.80;83.38
72525;BME280;60547;48.502;8.996;2023-04-19T05:31:07;98279.13;;;8.83;84.10
72525;BME280;60547;48.502;8.996;2023-04-19T05:33:33;98278.69;;;8.88;82.85
72525;BME280;60547;48.502;8.996;2023-04-19T05:35:58;98286.50;;;8.96;83.08
72525;BME280;60547;48.502;8.996;2023-04-19T05:38:24;98283.78;;;8.93;82.75
72525;BME280;60547;48.502;8.996;2023-04-19T05:40:49;98274.91;;;8.71;82.64
72525;BME280;60547;48.502;8.996;2023-04-19T05:43:15;98272.94;;;8.71;83.41
72525;BME280;60547;48.502;8.996;2023-04-19T05:45:40;98277.50;;;8.55;83.22
72525;BME280;60547;48.502;8.996;2023-04-19T05:48:06;98284.50;;;8.66;82.81
72525;BME280;60547;48.502;8.996;2023-04-19T05:50:31;98280.16;;;8.65;83.15
72525;BME280;60547;48.502;8.996;2023-04-19T05:52:57;98289.13;;;8.77;83.14
72525;BME280;60547;48.502;8.996;2023-04-19T05:55:23;98282.75;;;8.80;82.66
72525;BME280;60547;48.502;8.996;2023-04-19T05:57:48;98294.75;;;8.69;82.41
72525;BME280;60547;48.502;8.996;2023-04-19T06:00:15;98293.72;;;8.56;83.56
72525;BME280;60547;48.502;8.996;2023-04-19T06:02:41;98298.03;;;8.61;84.27
72525;BME280;60547;48.502;8.996;2023-04-19T06:05:09;98291.94;;;8.73;82.96
72525;BME280;60547;48.502;8.996;2023-04-19T06:07:34;98294.16;;;8.85;82.73
72525;BME280;60547;48.502;8.996;2023-04-19T06:10:00;98292.19;;;8.86;83.09
72525;BME280;60547;48.502;8.996;2023-04-19T06:12:26;98298.66;;;8.76;82.31
72525;BME280;60547;48.502;8.996;2023-04-19T06:14:51;98305.59;;;8.91;82.33
72525;BME280;60547;48.502;8.996;2023-04-19T06:17:17;98304.31;;;8.99;81.73
72525;BME280;60547;48.502;8.996;2023-04-19T06:19:47;98302.16;;;8.80;81.54
72525;BME280;60547;48.502;8.996;2023-04-19T06:22:13;98310.22;;;9.01;81.70
72525;BME280;60547;48.502;8.996;2023-04-19T06:24:38;98302.19;;;9.10;81.83
72525;BME280;60547;48.502;8.996;2023-04-19T06:27:04;98306.06;;;9.16;81.65
72525;BME280;60547;48.502;8.996;2023-04-19T06:29:29;98300.59;;;9.09;80.47
72525;BME280;60547;48.502;8.996;2023-04-19T06:31:55;98300.50;;;9.16;81.16
72525;BME280;60547;48.502;8.996;2023-04-19T06:34:20;98302.19;;;9.10;80.91
72525;BME280;60547;48.502;8.996;2023-04-19T06:36:46;98301.81;;;9.08;80.83
72525;BME280;60547;48.502;8.996;2023-04-19T06:39:11;98304.19;;;9.36;81.14
72525;BME280;60547;48.502;8.996;2023-04-19T06:41:37;98298.53;;;9.44;80.42
72525;BME280;60547;48.502;8.996;2023-04-19T06:44:02;98292.66;;;9.38;79.97
72525;BME280;60547;48.502;8.996;2023-04-19T06:46:28;98295.06;;;9.36;78.85
72525;BME280;60547;48.502;8.996;2023-04-19T06:48:53;98286.78;;;9.32;79.35
72525;BME280;60547;48.502;8.996;2023-04-19T06:51:19;98301.69;;;9.46;79.86
72525;BME280;60547;48.502;8.996;2023-04-19T06:53:46;98305.41;;;9.62;79.55
72525;BME280;60547;48.502;8.996;2023-04-19T06:56:13;98294.50;;;9.48;78.57
72525;BME280;60547;48.502;8.996;2023-04-19T06:58:38;98294.56;;;9.45;78.89
72525;BME280;60547;48.502;8.996;2023-04-19T07:01:04;98288.94;;;9.48;78.92
72525;BME280;60547;48.502;8.996;2023-04-19T07:03:29;98303.88;;;9.58;78.97
72525;BME280;60547;48.502;8.996;2023-04-19T07:05:55;98291.31;;;9.50;80.04
72525;BME280;60547;48.502;8.996;2023-04-19T07:08:22;98296.75;;;9.57;78.05
72525;BME280;60547;48.502;8.996;2023-04-19T07:10:48;98279.09;;;9.44;79.07
72525;BME280;60547;48.502;8.996;2023-04-19T07:13:13;98284.28;;;9.42;79.51
72525;BME280;60547;48.502;8.996;2023-04-19T07:15:39;98286.28;;;9.41;78.32
72525;BME280;60547;48.502;8.996;2023-04-19T07:18:04;98296.59;;;9.41;78.51
72525;BME280;60547;48.502;8.996;2023-04-19T07:20:30;98272.13;;;9.32;78.20
72525;BME280;60547;48.502;8.996;2023-04-19T07:22:59;98289.56;;;9.32;78.96
72525;BME280;60547;48.502;8.996;2023-04-19T07:25:25;98286.44;;;9.30;79.03
72525;BME280;60547;48.502;8.996;2023-04-19T07:27:52;98289.78;;;9.45;79.70
72525;BME280;60547;48.502;8.996;2023-04-19T07:30:20;98299.47;;;9.33;78.25
72525;BME280;60547;48.502;8.996;2023-04-19T07:32:46;98294.13;;;9.19;79.47
72525;BME280;60547;48.502;8.996;2023-04-19T07:35:12;98298.09;;;9.18;79.13
72525;BME280;60547;48.502;8.996;2023-04-19T07:37:37;98298.16;;;9.15;78.79
72525;BME280;60547;48.502;8.996;2023-04-19T07:40:03;98297.28;;;9.21;78.86
72525;BME280;60547;48.502;8.996;2023-04-19T07:42:30;98280.91;;;9.00;79.54
72525;BME280;60547;48.502;8.996;2023-04-19T07:44:55;98300.25;;;9.07;79.09
72525;BME280;60547;48.502;8.996;2023-04-19T07:47:21;98297.41;;;9.11;79.17
72525;BME280;60547;48.502;8.996;2023-04-19T07:49:51;98281.53;;;9.11;79.25
72525;BME280;60547;48.502;8.996;2023-04-19T07:52:16;98290.25;;;9.13;78.99
72525;BME280;60547;48.502;8.996;2023-04-19T07:54:42;98287.84;;;9.15;78.66
72525;BME280;60547;48.502;8.996;2023-04-19T07:57:08;98292.19;;;9.16;78.94
72525;BME280;60547;48.502;8.996;2023-04-19T07:59:33;98285.22;;;9.31;79.70
72525;BME280;60547;48.502;8.996;2023-04-19T08:01:59;98287.69;;;9.53;80.00
72525;BME280;60547;48.502;8.996;2023-04-19T08:04:25;98280.94;;;9.54;78.09
72525;BME280;60547;48.502;8.996;2023-04-19T08:06:50;98278.72;;;9.42;78.26
72525;BME280;60547;48.502;8.996;2023-04-19T08:09:17;98284.75;;;9.36;78.32
72525;BME280;60547;48.502;8.996;2023-04-19T08:11:42;98282.44;;;9.31;78.33
72525;BME280;60547;48.502;8.996;2023-04-19T08:14:08;98267.09;;;9.23;77.64
72525;BME280;60547;48.502;8.996;2023-04-19T08:16:34;98271.72;;;9.33;77.26
72525;BME280;60547;48.502;8.996;2023-04-19T08:19:00;98280.09;;;9.57;77.47
72525;BME280;60547;48.502;8.996;2023-04-19T08:21:25;98282.75;;;9.64;76.65
72525;BME280;60547;48.502;8.996;2023-04-19T08:23:51;98275.03;;;9.75;77.13
72525;BME280;60547;48.502;8.996;2023-04-19T08:26:16;98268.63;;;9.78;76.96
72525;BME280;60547;48.502;8.996;2023-04-19T08:28:42;98271.28;;;9.85;74.75
72525;BME280;60547;48.502;8.996;2023-04-19T08:31:07;98268.09;;;9.87;75.91
72525;BME280;60547;48.502;8.996;2023-04-19T08:33:33;98275.88;;;9.72;74.13
72525;BME280;60547;48.502;8.996;2023-04-19T08:35:58;98271.00;;;9.80;75.68
72525;BME280;60547;48.502;8.996;2023-04-19T08:38:24;98265.97;;;9.71;73.88
72525;BME280;60547;48.502;8.996;2023-04-19T08:40:52;98272.00;;;9.89;73.76
72525;BME280;60547;48.502;8.996;2023-04-19T08:43:19;98274.78;;;9.89;73.58
72525;BME280;60547;48.502;8.996;2023-04-19T08:45:46;98264.63;;;9.79;73.39
72525;BME280;60547;48.502;8.996;2023-04-19T08:48:13;98262.41;;;9.70;73.21
72525;BME280;60547;48.502;8.996;2023-04-19T08:50:42;98280.16;;;9.77;73.74
72525;BME280;60547;48.502;8.996;2023-04-19T08:53:10;98268.44;;;9.89;74.01
72525;BME280;60547;48.502;8.996;2023-04-19T08:55:40;98261.97;;;9.95;73.60
72525;BME280;60547;48.502;8.996;2023-04-19T08:58:06;98265.31;;;10.10;73.45
72525;BME280;60547;48.502;8.996;2023-04-19T09:00:32;98258.22;;;10.29;73.54
72525;BME280;60547;48.502;8.996;2023-04-19T09:02:58;98273.50;;;10.17;72.63
72525;BME280;60547;48.502;8.996;2023-04-19T09:05:24;98264.75;;;10.19;73.10
72525;BME280;60547;48.502;8.996;2023-04-19T09:07:50;98256.31;;;10.02;73.32
72525;BME280;60547;48.502;8.996;2023-04-19T09:10:18;98260.41;;;9.94;73.57
72525;BME280;60547;48.502;8.996;2023-04-19T09:13:02;98247.66;;;9.97;73.79
72525;BME280;60547;48.502;8.996;2023-04-19T09:15:36;98255.94;;;10.24;73.14
72525;BME280;60547;48.502;8.996;2023-04-19T09:18:04;98258.09;;;10.36;72.84
72525;BME280;60547;48.502;8.996;2023-04-19T09:20:41;98250.47;;;10.60;72.15
72525;BME280;60547;48.502;8.996;2023-04-19T09:23:10;98243.78;;;10.57;72.02
72525;BME280;60547;48.502;8.996;2023-04-19T09:25:37;98238.63;;;10.76;73.04
72525;BME280;60547;48.502;8.996;2023-04-19T09:28:13;98228.13;;;10.83;71.97
72525;BME280;60547;48.502;8.996;2023-04-19T09:30:40;98242.69;;;10.91;70.76
72525;BME280;60547;48.502;8.996;2023-04-19T09:33:06;98243.34;;;10.59;71.91
72525;BME280;60547;48.502;8.996;2023-04-19T09:35:43;98239.19;;;10.87;71.39
72525;BME280;60547;48.502;8.996;2023-04-19T09:38:10;98239.53;;;10.89;72.45
72525;BME280;60547;48.502;8.996;2023-04-19T09:40:37;98235.84;;;10.76;71.60
72525;BME280;60547;48.502;8.996;2023-04-19T09:43:03;98221.97;;;10.92;72.08
72525;BME280;60547;48.502;8.996;2023-04-19T09:45:42;98224.97;;;11.01;70.49
72525;BME280;60547;48.502;8.996;2023-04-19T09:48:08;98225.81;;;10.98;72.06
72525;BME280;60547;48.502;8.996;2023-04-19T09:50:34;98221.78;;;11.19;70.90
72525;BME280;60547;48.502;8.996;2023-04-19T09:53:01;98221.50;;;11.13;70.48
72525;BME280;60547;48.502;8.996;2023-04-19T09:55:27;98211.22;;;11.10;72.78
72525;BME280;60547;48.502;8.996;2023-04-19T09:57:53;98199.75;;;11.24;71.90
72525;BME280;60547;48.502;8.996;2023-04-19T10:00:19;98198.19;;;11.56;70.38
72525;BME280;60547;48.502;8.996;2023-04-19T10:02:46;98196.38;;;11.65;71.38
72525;BME280;60547;48.502;8.996;2023-04-19T10:05:20;98191.56;;;11.66;69.63
72525;BME280;60547;48.502;8.996;2023-04-19T10:07:46;98198.03;;;11.63;70.42
72525;BME280;60547;48.502;8.996;2023-04-19T10:10:14;98190.72;;;11.85;68.35
72525;BME280;60547;48.502;8.996;2023-04-19T10:12:43;98191.25;;;11.80;68.69
72525;BME280;60547;48.502;8.996;2023-04-19T10:15:13;98190.41;;;12.12;67.50
72525;BME280;60547;48.502;8.996;2023-04-19T10:17:40;98188.59;;;12.06;65.08
72525;BME280;60547;48.502;8.996;2023-04-19T10:20:08;98175.31;;;12.10;66.37
72525;BME280;60547;48.502;8.996;2023-04-19T10:22:35;98180.03;;;12.13;65.84
72525;BME280;60547;48.502;8.996;2023-04-19T10:25:15;98183.16;;;12.15;65.47
72525;BME280;60547;48.502;8.996;2023-04-19T10:27:44;98177.19;;;12.00;66.10
72525;BME280;60547;48.502;8.996;2023-04-19T10:30:19;98184.94;;;12.50;63.68
72525;BME280;60547;48.502;8.996;2023-04-19T10:32:50;98162.38;;;13.24;61.31
72525;BME280;60547;48.502;8.996;2023-04-19T10:35:18;98175.44;;;13.15;60.93
72525;BME280;60547;48.502;8.996;2023-04-19T10:38:12;98167.19;;;13.37;60.74
72525;BME280;60547;48.502;8.996;2023-04-19T10:45:54;98149.63;;;13.23;60.78
72525;BME280;60547;48.502;8.996;2023-04-19T10:51:03;98148.94;;;13.32;63.56
72525;BME280;60547;48.502;8.996;2023-04-19T10:53:58;98148.84;;;13.23;61.88
72525;BME280;60547;48.502;8.996;2023-04-19T11:04:04;98128.38;;;13.13;63.73
72525;BME280;60547;48.502;8.996;2023-04-19T11:06:31;98124.81;;;13.25;61.23
72525;BME280;60547;48.502;8.996;2023-04-19T11:08:56;98125.34;;;13.46;60.38
72525;BME280;60547;48.502;8.996;2023-04-19T11:11:22;98116.09;;;13.23;60.93
72525;BME280;60547;48.502;8.996;2023-04-19T11:13:49;98107.81;;;13.33;61.54
72525;BME280;60547;48.502;8.996;2023-04-19T11:16:15;98116.28;;;13.42;62.66
72525;BME280;60547;48.502;8.996;2023-04-19T11:18:41;98117.53;;;13.15;61.99
72525;BME280;60547;48.502;8.996;2023-04-19T11:21:11;98100.31;;;13.04;62.20
72525;BME280;60547;48.502;8.996;2023-04-19T11:23:38;98092.84;;;13.01;62.84
72525;BME280;60547;48.502;8.996;2023-04-19T11:26:03;98092.19;;;12.72;62.70
72525;BME280;60547;48.502;8.996;2023-04-19T11:28:32;98084.13;;;12.48;63.18
72525;BME280;60547;48.502;8.996;2023-04-19T11:30:57;98089.28;;;12.63;64.05
72525;BME280;60547;48.502;8.996;2023-04-19T11:33:23;98096.63;;;12.56;63.12
72525;BME280;60547;48.502;8.996;2023-04-19T11:35:50;98088.72;;;12.55;63.54
72525;BME280;60547;48.502;8.996;2023-04-19T11:38:15;98089.16;;;12.66;62.79
72525;BME280;60547;48.502;8.996;2023-04-19T11:40:41;98079.44;;;12.71;63.36
72525;BME280;60547;48.502;8.996;2023-04-19T11:43:07;98077.44;;;12.58;61.56
72525;BME280;60547;48.502;8.996;2023-04-19T11:45:34;98073.31;;;12.76;62.89
72525;BME280;60547;48.502;8.996;2023-04-19T11:48:01;98080.00;;;12.66;61.96
72525;BME280;60547;48.502;8.996;2023-04-19T11:53:16;98070.16;;;12.48;63.62
72525;BME280;60547;48.502;8.996;2023-04-19T11:55:47;98072.81;;;12.26;62.84
72525;BME280;60547;48.502;8.996;2023-04-19T12:00:55;98075.75;;;12.36;64.49
72525;BME280;60547;48.502;8.996;2023-04-19T12:03:22;98072.25;;;12.19;63.14
72525;BME280;60547;48.502;8.996;2023-04-19T12:05:56;98069.47;;;12.32;63.15
72525;BME280;60547;48.502;8.996;2023-04-19T12:08:53;98056.84;;;12.14;63.69
72525;BME280;60547;48.502;8.996;2023-04-19T12:11:19;98066.69;;;12.32;64.27
72525;BME280;60547;48.502;8.996;2023-04-19T12:13:46;98055.84;;;12.21;63.13
72525;BME280;60547;48.502;8.996;2023-04-19T12:16:12;98061.22;;;12.28;63.70
72525;BME280;60547;48.502;8.996;2023-04-19T12:18:59;98064.09;;;12.24;62.90
72525;BME280;60547;48.502;8.996;2023-04-19T12:21:30;98069.25;;;12.26;63.34
72525;BME280;60547;48.502;8.996;2023-04-19T12:23:59;98060.19;;;12.22;63.43
72525;BME280;60547;48.502;8.996;2023-04-19T12:26:26;98060.66;;;12.33;62.96
72525;BME280;60547;48.502;8.996;2023-04-19T12:28:53;98072.25;;;12.19;63.21
72525;BME280;60547;48.502;8.996;2023-04-19T12:31:19;98064.25;;;11.92;63.37
72525;BME280;60547;48.502;8.996;2023-04-19T12:33:45;98058.72;;;12.05;64.92
72525;BME280;60547;48.502;8.996;2023-04-19T12:36:11;98064.66;;;11.61;63.44
72525;BME280;60547;48.502;8.996;2023-04-19T12:38:37;98057.81;;;11.50;65.13
72525;BME280;60547;48.502;8.996;2023-04-19T12:41:02;98061.03;;;11.48;65.22
72525;BME280;60547;48.502;8.996;2023-04-19T12:43:28;98057.84;;;11.33;65.93
72525;BME280;60547;48.502;8.996;2023-04-19T12:45:54;98065.09;;;11.60;63.67
72525;BME280;60547;48.502;8.996;2023-04-19T12:48:20;98063.50;;;11.30;66.40
72525;BME280;60547;48.502;8.996;2023-04-19T12:50:45;98047.59;;;11.30;64.79
72525;BME280;60547;48.502;8.996;2023-04-19T12:53:11;98054.88;;;11.41;65.55
72525;BME280;60547;48.502;8.996;2023-04-19T12:55:36;98038.50;;;11.43;66.29
72525;BME280;60547;48.502;8.996;2023-04-19T12:58:02;98054.53;;;11.39;65.48
72525;BME280;60547;48.502;8.996;2023-04-19T13:00:27;98048.56;;;11.53;67.31
72525;BME280;60547;48.502;8.996;2023-04-19T13:02:54;98047.91;;;11.49;66.22
72525;BME280;60547;48.502;8.996;2023-04-19T13:05:20;98052.09;;;11.41;66.24
72525;BME280;60547;48.502;8.996;2023-04-19T13:07:46;98059.91;;;11.46;66.29
72525;BME280;60547;48.502;8.996;2023-04-19T13:10:11;98048.81;;;11.29;67.00
72525;BME280;60547;48.502;8.996;2023-04-19T13:12:37;98046.31;;;11.48;68.23
72525;BME280;60547;48.502;8.996;2023-04-19T13:15:03;98052.97;;;11.38;67.92
72525;BME280;60547;48.502;8.996;2023-04-19T13:17:29;98055.94;;;11.30;68.37
72525;BME280;60547;48.502;8.996;2023-04-19T13:19:54;98054.63;;;11.35;68.32
72525;BME280;60547;48.502;8.996;2023-04-19T13:22:20;98048.53;;;11.40;68.67
72525;BME280;60547;48.502;8.996;2023-04-19T13:24:46;98055.53;;;11.16;69.17